createdAt,value
2018-05-10T00:00:20.972Z,62.01
2018-05-10T00:01:21.149Z,60.66
2018-05-10T00:02:20.823Z,58.67
2018-05-10T00:03:20.751Z,60.60
2018-05-10T00:04:20.673Z,60.66
2018-05-10T00:05:20.602Z,59.99
2018-05-10T00:06:20.526Z,57.78
2018-05-10T00:07:20.436Z,57.88
2018-05-10T00:08:20.373Z,61.33
2018-05-10T00:09:20.285Z,58.74
2018-05-10T00:10:20.210Z,60.85
2018-05-10T00:11:20.135Z,59.41
2018-05-10T00:12:20.061Z,61.14
2018-05-10T00:13:19.985Z,60.57
2018-05-10T00:14:19.911Z,62.39
2018-05-10T00:15:19.825Z,60.38
2018-05-10T00:16:19.750Z,64.69
2018-05-10T00:17:19.674Z,62.96
2018-05-10T00:18:19.599Z,63.35
2018-05-10T00:19:19.524Z,64.25
2018-05-10T00:20:19.527Z,63.45
2018-05-10T00:21:19.374Z,62.96
2018-05-10T00:22:19.300Z,65.08
2018-05-10T00:23:19.212Z,64.59
2018-05-10T00:24:19.224Z,62.10
2018-05-10T00:25:19.062Z,62.10
2018-05-10T00:26:18.987Z,62.96
2018-05-10T00:27:18.915Z,60.57
2018-05-10T00:28:18.838Z,59.99
2018-05-10T00:29:18.762Z,62.19
2018-05-10T00:30:18.676Z,62.10
2018-05-10T00:31:18.851Z,62.48
2018-05-10T00:32:18.526Z,63.06
2018-05-10T00:33:18.451Z,63.54
2018-05-10T00:34:18.380Z,60.85
2018-05-10T00:35:18.301Z,60.95
2018-05-10T00:36:18.215Z,63.25
2018-05-10T00:37:18.139Z,62.96
2018-05-10T00:38:18.067Z,63.25
2018-05-10T00:39:17.989Z,63.25
2018-05-10T00:40:17.913Z,62.87
2018-05-10T00:41:17.839Z,63.06
2018-05-10T00:42:17.764Z,62.01
2018-05-10T00:43:17.680Z,61.72
2018-05-10T00:44:17.604Z,63.06
2018-05-10T00:45:17.527Z,61.43
2018-05-10T00:46:17.453Z,60.57
2018-05-10T00:47:17.380Z,62.48
2018-05-10T00:48:17.303Z,61.72
2018-05-10T00:49:17.228Z,61.72
2018-05-10T00:50:17.141Z,62.19
2018-05-10T00:51:17.068Z,62.10
2018-05-10T00:52:16.996Z,62.48
2018-05-10T00:53:16.916Z,62.19
2018-05-10T00:54:16.854Z,62.48
2018-05-10T00:55:16.765Z,60.66
2018-05-10T00:56:16.930Z,62.39
2018-05-10T00:57:16.604Z,62.10
2018-05-10T00:58:16.529Z,61.14
2018-05-10T00:59:16.456Z,63.06
2018-05-10T01:00:16.381Z,62.39
2018-05-10T01:01:16.309Z,62.58
2018-05-10T01:02:16.218Z,62.87
2018-05-10T01:03:16.142Z,63.06
2018-05-10T01:04:16.067Z,61.52
2018-05-10T01:05:15.996Z,62.96
2018-05-10T01:06:15.920Z,62.10
2018-05-10T01:07:15.842Z,62.19
2018-05-10T01:08:15.780Z,62.19
2018-05-10T01:09:15.696Z,61.52
2018-05-10T01:10:15.605Z,62.10
2018-05-10T01:11:15.542Z,61.91
2018-05-10T01:12:15.459Z,61.91
2018-05-10T01:13:15.381Z,60.47
2018-05-10T01:14:15.307Z,61.24
2018-05-10T01:15:15.232Z,60.47
2018-05-10T01:16:15.143Z,60.85
2018-05-10T01:17:15.069Z,61.14
2018-05-10T01:18:14.993Z,60.18
2018-05-10T01:19:14.919Z,60.66
2018-05-10T01:20:14.854Z,61.91
2018-05-10T01:21:14.769Z,60.57
2018-05-10T01:22:14.694Z,60.08
2018-05-10T01:23:14.607Z,61.81
2018-05-10T01:24:14.532Z,61.14
2018-05-10T01:25:14.457Z,61.05
2018-05-10T01:26:14.382Z,60.85
2018-05-10T01:27:14.308Z,61.52
2018-05-10T01:28:14.233Z,60.95
2018-05-10T01:29:14.158Z,61.43
2018-05-10T01:30:14.070Z,61.24
2018-05-10T01:31:13.996Z,59.51
2018-05-10T01:32:13.933Z,61.43
2018-05-10T01:33:13.845Z,61.43
2018-05-10T01:34:13.769Z,61.24
2018-05-10T01:35:13.695Z,61.33
2018-05-10T01:36:13.612Z,61.81
2018-05-10T01:37:13.533Z,61.24
2018-05-10T01:38:13.459Z,61.62
2018-05-10T01:39:13.384Z,61.81
2018-05-10T01:40:13.309Z,61.43
2018-05-10T01:41:13.234Z,61.43
2018-05-10T01:42:13.159Z,61.24
2018-05-10T01:43:13.071Z,62.29
2018-05-10T01:44:12.996Z,61.43
2018-05-10T01:45:12.921Z,60.66
2018-05-10T01:46:12.859Z,61.24
2018-05-10T01:47:12.772Z,61.24
2018-05-10T01:48:12.700Z,62.48
2018-05-10T01:49:12.621Z,61.62
2018-05-10T01:50:12.535Z,60.38
2018-05-10T01:51:12.460Z,61.14
2018-05-10T01:52:12.385Z,60.95
2018-05-10T01:53:12.325Z,61.43
2018-05-10T01:54:12.236Z,61.33
2018-05-10T01:55:12.161Z,61.33
2018-05-10T01:56:12.073Z,61.72
2018-05-10T01:57:11.997Z,61.33
2018-05-10T01:58:11.923Z,61.43
2018-05-10T01:59:11.861Z,61.81
2018-05-10T02:00:11.773Z,61.14
2018-05-10T02:01:11.724Z,61.72
2018-05-10T02:02:11.623Z,60.47
2018-05-10T02:03:11.537Z,60.75
2018-05-10T02:04:11.461Z,60.57
2018-05-10T02:05:11.387Z,59.99
2018-05-10T02:06:11.315Z,60.28
2018-05-10T02:07:11.243Z,59.99
2018-05-10T02:08:11.161Z,60.28
2018-05-10T02:09:11.088Z,60.47
2018-05-10T02:10:11.000Z,60.66
2018-05-10T02:11:10.923Z,60.47
2018-05-10T02:12:10.849Z,60.08
2018-05-10T02:13:10.777Z,58.45
2018-05-10T02:14:10.700Z,59.70
2018-05-10T02:15:10.624Z,59.51
2018-05-10T02:16:10.549Z,59.22
2018-05-10T02:17:10.463Z,59.22
2018-05-10T02:18:10.388Z,59.61
2018-05-10T02:19:10.313Z,58.26
2018-05-10T02:20:10.237Z,58.17
2018-05-10T02:21:10.164Z,58.45
2018-05-10T02:22:10.077Z,57.68
2018-05-10T02:23:10.000Z,57.50
2018-05-10T02:24:09.939Z,57.68
2018-05-10T02:25:09.851Z,57.65
2018-05-10T02:26:09.776Z,57.50
2018-05-10T02:27:09.700Z,57.78
2018-05-10T02:28:09.626Z,56.44
2018-05-10T02:29:09.539Z,56.34
2018-05-10T02:30:09.464Z,56.15
2018-05-10T02:31:09.389Z,57.21
2018-05-10T02:32:09.317Z,57.50
2018-05-10T02:33:09.241Z,57.21
2018-05-10T02:34:09.164Z,57.08
2018-05-10T02:35:09.090Z,56.12
2018-05-10T02:36:09.002Z,57.37
2018-05-10T02:37:08.926Z,57.65
2018-05-10T02:38:08.853Z,57.28
2018-05-10T02:39:08.777Z,56.31
2018-05-10T02:40:08.702Z,57.75
2018-05-10T02:41:08.620Z,57.88
2018-05-10T02:42:08.540Z,57.68
2018-05-10T02:43:08.466Z,57.11
2018-05-10T02:44:08.391Z,57.78
2018-05-10T02:45:08.324Z,56.79
2018-05-10T02:46:08.230Z,57.21
2018-05-10T02:47:08.153Z,57.65
2018-05-10T02:48:08.081Z,57.40
2018-05-10T02:49:08.004Z,57.50
2018-05-10T02:50:07.932Z,57.30
2018-05-10T02:51:07.853Z,56.02
2018-05-10T02:52:07.778Z,57.37
2018-05-10T02:53:07.692Z,56.98
2018-05-10T02:54:07.617Z,56.41
2018-05-10T02:55:07.542Z,58.62
2018-05-10T02:56:07.468Z,58.14
2018-05-10T02:57:07.393Z,59.70
2018-05-10T02:58:07.308Z,59.38
2018-05-10T02:59:07.230Z,59.19
2018-05-10T03:00:07.158Z,59.29
2018-05-10T03:01:07.079Z,58.94
2018-05-10T03:02:07.017Z,60.47
2018-05-10T03:03:06.929Z,59.41
2018-05-10T03:04:06.844Z,60.75
2018-05-10T03:05:06.780Z,61.33
2018-05-10T03:06:06.693Z,59.41
2018-05-10T03:07:06.618Z,61.52
2018-05-10T03:08:06.544Z,61.33
2018-05-10T03:09:06.473Z,60.75
2018-05-10T03:10:06.380Z,60.47
2018-05-10T03:11:06.305Z,59.22
2018-05-10T03:12:06.235Z,58.94
2018-05-10T03:13:06.162Z,59.86
2018-05-10T03:14:06.084Z,60.53
2018-05-10T03:15:06.006Z,60.57
2018-05-10T03:16:05.920Z,59.41
2018-05-10T03:17:05.845Z,60.47
2018-05-10T03:18:05.769Z,59.99
2018-05-10T03:19:05.701Z,58.55
2018-05-10T03:20:05.619Z,59.32
2018-05-10T03:21:05.545Z,59.03
2018-05-10T03:22:05.512Z,59.80
2018-05-10T03:23:05.381Z,58.23
2018-05-10T03:24:05.307Z,60.57
2018-05-10T03:25:05.231Z,59.38
2018-05-10T03:26:05.158Z,59.12
2018-05-10T03:27:05.087Z,59.48
2018-05-10T03:28:04.996Z,59.86
2018-05-10T03:29:04.922Z,61.02
2018-05-10T03:30:04.849Z,59.41
2018-05-10T03:31:04.773Z,59.48
2018-05-10T03:32:04.695Z,60.25
2018-05-10T03:33:04.621Z,59.58
2018-05-10T03:34:04.533Z,58.52
2018-05-10T03:35:04.458Z,58.55
2018-05-10T03:36:04.384Z,57.95
2018-05-10T03:37:04.311Z,57.85
2018-05-10T03:38:04.244Z,59.00
2018-05-10T03:39:04.159Z,58.14
2018-05-10T03:40:04.072Z,57.85
2018-05-10T03:41:03.996Z,57.85
2018-05-10T03:42:03.922Z,57.08
2018-05-10T03:43:03.847Z,56.98
2018-05-10T03:44:03.772Z,56.51
2018-05-10T03:45:03.697Z,56.12
2018-05-10T03:46:03.610Z,56.89
2018-05-10T03:47:03.534Z,55.83
2018-05-10T03:48:03.463Z,56.02
2018-05-10T03:49:03.384Z,55.16
2018-05-10T03:50:03.309Z,55.64
2018-05-10T03:51:03.235Z,54.49
2018-05-10T03:52:03.148Z,55.07
2018-05-10T03:53:03.074Z,53.82
2018-05-10T03:54:02.998Z,54.01
2018-05-10T03:55:02.924Z,52.57
2018-05-10T03:56:02.849Z,53.24
2018-05-10T03:57:02.774Z,52.48
2018-05-10T03:58:02.685Z,52.83
2018-05-10T03:59:02.611Z,51.68
2018-05-10T04:00:02.535Z,51.68
2018-05-10T04:01:02.461Z,51.20
2018-05-10T04:02:02.387Z,50.63
2018-05-10T04:03:02.311Z,50.53
2018-05-10T04:04:02.226Z,50.05
2018-05-10T04:05:02.149Z,48.61
2018-05-10T04:06:02.105Z,50.73
2018-05-10T04:07:02.002Z,50.05
2018-05-10T04:08:01.925Z,49.38
2018-05-10T04:09:01.839Z,49.29
2018-05-10T04:10:01.762Z,50.05
2018-05-10T04:11:01.687Z,50.15
2018-05-10T04:12:01.612Z,49.96
2018-05-10T04:13:01.538Z,50.73
2018-05-10T04:14:01.451Z,50.73
2018-05-10T04:15:01.376Z,50.63
2018-05-10T04:16:01.300Z,49.19
2018-05-10T04:17:01.226Z,50.34
2018-05-10T04:18:01.151Z,50.43
2018-05-10T04:19:01.076Z,51.78
2018-05-10T04:20:00.989Z,51.30
2018-05-10T04:21:00.913Z,52.19
2018-05-10T04:22:00.838Z,50.84
2018-05-10T04:23:00.776Z,51.32
2018-05-10T04:24:00.688Z,48.54
2018-05-10T04:25:00.614Z,49.88
2018-05-10T04:26:00.529Z,48.83
2018-05-10T04:27:00.452Z,50.75
2018-05-10T04:28:00.379Z,52.48
2018-05-10T04:29:00.306Z,50.94
2018-05-10T04:30:00.228Z,51.90
2018-05-10T04:31:00.140Z,51.23
2018-05-10T04:32:00.065Z,51.51
2018-05-10T04:32:59.990Z,50.65
2018-05-10T04:33:59.930Z,51.61
2018-05-10T04:34:59.839Z,52.28
2018-05-10T04:35:59.765Z,52.95
2018-05-10T04:36:59.678Z,51.61
2018-05-10T04:37:59.604Z,51.32
2018-05-10T04:38:59.528Z,53.15
2018-05-10T04:39:59.458Z,52.86
2018-05-10T04:40:59.380Z,51.32
2018-05-10T04:41:59.293Z,52.95
2018-05-10T04:42:59.217Z,51.14
2018-05-10T04:43:59.140Z,52.19
2018-05-10T04:44:59.066Z,50.75
2018-05-10T04:45:58.990Z,51.04
2018-05-10T04:46:58.916Z,53.24
2018-05-10T04:47:58.853Z,52.48
2018-05-10T04:48:58.755Z,53.15
2018-05-10T04:49:58.687Z,53.15
2018-05-10T04:50:58.605Z,52.86
2018-05-10T04:51:58.529Z,52.95
2018-05-10T04:52:58.455Z,52.57
2018-05-10T04:53:58.369Z,51.71
2018-05-10T04:54:58.293Z,52.48
2018-05-10T04:55:58.217Z,54.39
2018-05-10T04:56:58.143Z,53.72
2018-05-10T04:57:58.069Z,54.58
2018-05-10T04:58:57.993Z,52.86
2018-05-10T04:59:57.917Z,54.49
2018-05-10T05:00:57.830Z,53.34
2018-05-10T05:01:57.756Z,52.48
2018-05-10T05:02:57.681Z,53.44
2018-05-10T05:03:57.606Z,53.34
2018-05-10T05:04:57.531Z,54.13
2018-05-10T05:05:57.456Z,55.57
2018-05-10T05:06:57.371Z,55.19
2018-05-10T05:07:57.293Z,54.13
2018-05-10T05:08:57.266Z,55.86
2018-05-10T05:09:57.143Z,57.40
2018-05-10T05:10:57.069Z,57.21
2018-05-10T05:11:57.007Z,56.34
2018-05-10T05:12:56.919Z,55.47
2018-05-10T05:13:56.832Z,56.15
2018-05-10T05:14:56.758Z,55.96
2018-05-10T05:15:56.683Z,60.05
2018-05-10T05:16:56.607Z,57.59
2018-05-10T05:17:56.532Z,58.07
2018-05-10T05:18:56.457Z,57.30
2018-05-10T05:19:56.371Z,58.36
2018-05-10T05:20:56.294Z,55.86
2018-05-10T05:21:56.219Z,59.03
2018-05-10T05:22:56.157Z,57.59
2018-05-10T05:23:56.069Z,58.45
2018-05-10T05:24:55.994Z,58.36
2018-05-10T05:25:55.920Z,57.21
2018-05-10T05:26:55.878Z,58.17
2018-05-10T05:27:55.758Z,56.44
2018-05-10T05:28:55.684Z,57.68
2018-05-10T05:29:55.608Z,60.38
2018-05-10T05:30:55.535Z,60.57
2018-05-10T05:31:55.462Z,59.61
2018-05-10T05:32:55.383Z,58.55
2018-05-10T05:33:55.297Z,59.32
2018-05-10T05:34:55.221Z,60.08
2018-05-10T05:35:55.145Z,59.89
2018-05-10T05:36:55.071Z,60.60
2018-05-10T05:37:54.996Z,59.44
2018-05-10T05:38:54.921Z,61.94
2018-05-10T05:39:54.846Z,62.90
2018-05-10T05:40:54.772Z,62.42
2018-05-10T05:41:54.685Z,62.71
2018-05-10T05:42:54.610Z,62.61
2018-05-10T05:43:54.535Z,61.27
2018-05-10T05:44:54.460Z,62.81
2018-05-10T05:45:54.385Z,63.02
2018-05-10T05:46:54.310Z,63.12
2018-05-10T05:47:54.237Z,63.51
2018-05-10T05:48:54.163Z,62.45
2018-05-10T05:49:54.110Z,63.79
2018-05-10T05:50:53.997Z,64.53
2018-05-10T05:51:53.925Z,63.28
2018-05-10T05:52:53.847Z,63.48
2018-05-10T05:53:53.773Z,62.99
2018-05-10T05:54:53.782Z,65.11
2018-05-10T05:55:53.636Z,63.70
2018-05-10T05:56:53.547Z,63.60
2018-05-10T05:57:53.473Z,64.25
2018-05-10T05:58:53.398Z,63.51
2018-05-10T05:59:53.323Z,61.49
2018-05-10T06:00:53.276Z,63.02
2018-05-10T06:01:53.162Z,64.47
2018-05-10T06:02:53.086Z,64.47
2018-05-10T06:03:53.021Z,65.72
2018-05-10T06:04:52.937Z,65.05
2018-05-10T06:05:52.861Z,64.76
2018-05-10T06:06:52.787Z,65.81
2018-05-10T06:07:52.717Z,65.62
2018-05-10T06:08:52.637Z,64.85
2018-05-10T06:09:52.562Z,65.72
2018-05-10T06:10:52.488Z,64.47
2018-05-10T06:11:52.416Z,64.37
2018-05-10T06:12:52.327Z,66.04
2018-05-10T06:13:52.249Z,65.94
2018-05-10T06:14:52.175Z,66.91
2018-05-10T06:15:52.193Z,65.17
2018-05-10T06:16:52.025Z,64.98
2018-05-10T06:17:51.950Z,64.98
2018-05-10T06:18:51.875Z,66.46
2018-05-10T06:19:51.814Z,67.68
2018-05-10T06:20:51.729Z,68.15
2018-05-10T06:21:51.653Z,66.23
2018-05-10T06:22:51.576Z,67.48
2018-05-10T06:23:51.503Z,67.68
2018-05-10T06:24:51.516Z,65.75
2018-05-10T06:25:51.351Z,67.10
2018-05-10T06:26:51.278Z,67.48
2018-05-10T06:27:51.201Z,66.71
2018-05-10T06:28:51.126Z,66.52
2018-05-10T06:29:51.055Z,67.77
2018-05-10T06:30:50.965Z,68.35
2018-05-10T06:31:50.891Z,68.25
2018-05-10T06:32:50.816Z,66.91
2018-05-10T06:33:50.740Z,67.29
2018-05-10T06:34:50.665Z,69.50
2018-05-10T06:35:50.595Z,67.86
2018-05-10T06:36:50.515Z,68.15
2018-05-10T06:37:50.441Z,68.25
2018-05-10T06:38:50.371Z,68.09
2018-05-10T06:39:50.292Z,68.09
2018-05-10T06:40:50.217Z,69.44
2018-05-10T06:41:50.142Z,67.29
2018-05-10T06:42:50.067Z,67.58
2018-05-10T06:43:49.992Z,66.84
2018-05-10T06:44:49.921Z,71.08
2018-05-10T06:45:49.842Z,72.03
2018-05-10T06:46:49.781Z,69.50
2018-05-10T06:47:49.692Z,68.57
2018-05-10T06:48:49.617Z,70.50
2018-05-10T06:49:49.546Z,69.24
2018-05-10T06:50:49.468Z,68.29
2018-05-10T06:51:49.393Z,69.53
2018-05-10T06:52:49.318Z,68.67
2018-05-10T06:53:49.242Z,70.88
2018-05-10T06:54:49.170Z,70.01
2018-05-10T06:55:49.094Z,70.01
2018-05-10T06:56:49.019Z,69.92
2018-05-10T06:57:48.947Z,69.92
2018-05-10T06:58:48.868Z,67.45
2018-05-10T06:59:48.794Z,71.78
2018-05-10T07:00:48.719Z,70.68
2018-05-10T07:01:48.643Z,71.55
2018-05-10T07:02:48.571Z,69.53
2018-05-10T07:03:48.494Z,69.82
2018-05-10T07:04:48.420Z,68.96
2018-05-10T07:05:48.345Z,69.63
2018-05-10T07:06:48.270Z,69.24
2018-05-10T07:07:48.195Z,67.13
2018-05-10T07:08:48.120Z,67.99
2018-05-10T07:09:48.106Z,67.61
2018-05-10T07:10:47.970Z,67.19
2018-05-10T07:11:47.896Z,67.03
2018-05-10T07:12:47.821Z,67.80
2018-05-10T07:13:47.746Z,68.29
2018-05-10T07:14:47.677Z,67.03
2018-05-10T07:15:47.599Z,67.32
2018-05-10T07:16:47.520Z,69.82
2018-05-10T07:17:47.446Z,68.19
2018-05-10T07:18:47.375Z,68.80
2018-05-10T07:19:47.296Z,70.53
2018-05-10T07:20:47.222Z,70.05
2018-05-10T07:21:47.154Z,71.01
2018-05-10T07:22:47.072Z,69.76
2018-05-10T07:23:46.996Z,70.34
2018-05-10T07:24:46.922Z,71.49
2018-05-10T07:25:46.848Z,71.20
2018-05-10T07:26:46.771Z,73.22
2018-05-10T07:27:46.697Z,71.88
2018-05-10T07:28:46.622Z,72.17
2018-05-10T07:29:46.547Z,73.51
2018-05-10T07:30:46.473Z,72.55
2018-05-10T07:31:46.398Z,75.05
2018-05-10T07:32:46.325Z,72.84
2018-05-10T07:33:46.248Z,73.99
2018-05-10T07:34:46.176Z,77.53
2018-05-10T07:35:46.098Z,77.06
2018-05-10T07:36:46.024Z,78.44
2018-05-10T07:37:45.958Z,79.79
2018-05-10T07:38:45.873Z,80.66
2018-05-10T07:39:45.798Z,79.98
2018-05-10T07:40:45.724Z,80.31
2018-05-10T07:41:45.648Z,84.41
2018-05-10T07:42:45.574Z,85.55
2018-05-10T07:43:45.499Z,88.78
2018-05-10T07:44:45.428Z,90.66
2018-05-10T07:45:45.349Z,89.21
2018-05-10T07:46:45.290Z,89.89
2018-05-10T07:47:45.211Z,89.25
2018-05-10T07:48:45.136Z,89.93
2018-05-10T07:49:45.074Z,90.46
2018-05-10T07:50:44.986Z,89.11
2018-05-10T07:51:44.914Z,88.78
2018-05-10T07:52:44.850Z,87.23
2018-05-10T07:53:44.775Z,87.82
2018-05-10T07:54:44.700Z,86.76
2018-05-10T07:55:44.628Z,87.29
2018-05-10T07:56:44.563Z,87.87
2018-05-10T07:57:44.487Z,88.35
2018-05-10T07:58:44.426Z,90.27
2018-05-10T07:59:44.356Z,90.03
2018-05-10T08:00:44.276Z,88.18
2018-05-10T08:01:44.201Z,85.90
2018-05-10T08:02:44.125Z,84.64
2018-05-10T08:03:44.063Z,83.13
2018-05-10T08:04:43.988Z,77.12
2018-05-10T08:05:43.914Z,74.84
2018-05-10T08:06:43.854Z,70.90
2018-05-10T08:07:43.776Z,68.41
2018-05-10T08:08:43.732Z,67.99
2018-05-10T08:09:43.638Z,67.47
2018-05-10T08:10:43.565Z,66.56
2018-05-10T08:11:43.502Z,67.63
2018-05-10T08:12:43.427Z,65.66
2018-05-10T08:13:43.365Z,62.19
2018-05-10T08:14:43.289Z,62.48
2018-05-10T08:15:43.227Z,61.44
2018-05-10T08:16:43.156Z,63.07
2018-05-10T08:17:43.089Z,60.61
2018-05-10T08:18:43.028Z,60.28
2018-05-10T08:19:42.955Z,62.81
2018-05-10T08:20:42.890Z,64.33
2018-05-10T08:21:42.815Z,64.20
2018-05-10T08:22:42.753Z,65.34
2018-05-10T08:23:42.690Z,64.33
2018-05-10T08:24:42.615Z,62.49
2018-05-10T08:25:42.554Z,62.68
2018-05-10T08:26:42.479Z,63.65
2018-05-10T08:27:42.415Z,61.77
2018-05-10T08:28:42.354Z,60.90
2018-05-10T08:29:42.280Z,59.74
2018-05-10T08:30:42.215Z,58.01
2018-05-10T08:31:42.154Z,58.76
2018-05-10T08:32:42.091Z,58.73
2018-05-10T08:33:42.017Z,59.61
2018-05-10T08:34:41.955Z,61.97
2018-05-10T08:35:41.891Z,60.41
2018-05-10T08:36:41.880Z,58.59
2018-05-10T08:37:41.754Z,57.36
2018-05-10T08:38:41.691Z,57.46
2018-05-10T08:39:41.618Z,57.75
2018-05-10T08:40:41.555Z,56.46
2018-05-10T08:41:41.492Z,56.24
2018-05-10T08:42:41.439Z,57.82
2018-05-10T08:43:41.357Z,56.00
2018-05-10T08:44:41.306Z,58.04
2018-05-10T08:45:41.234Z,55.25
2018-05-10T08:46:41.171Z,56.05
2018-05-10T08:47:41.106Z,53.81
2018-05-10T08:48:41.036Z,53.91
2018-05-10T08:49:40.969Z,55.25
2018-05-10T08:50:40.905Z,56.26
2018-05-10T08:51:40.842Z,57.14
2018-05-10T08:52:40.768Z,57.62
2018-05-10T08:53:40.706Z,56.51
2018-05-10T08:54:40.643Z,56.25
2018-05-10T08:55:40.581Z,54.47
2018-05-10T08:56:40.518Z,57.79
2018-05-10T08:57:40.445Z,59.58
2018-05-10T08:58:40.384Z,60.09
2018-05-10T08:59:40.320Z,61.58
2018-05-10T09:00:40.257Z,60.05
2018-05-10T09:01:40.194Z,57.50
2018-05-10T09:02:40.132Z,56.52
2018-05-10T09:03:40.057Z,56.92
2018-05-10T09:04:39.994Z,54.49
2018-05-10T09:05:39.933Z,54.90
2018-05-10T09:06:39.869Z,54.05
2018-05-10T09:07:39.808Z,52.43
2018-05-10T09:08:39.744Z,49.63
2018-05-10T09:09:39.817Z,51.21
2018-05-10T09:10:39.608Z,50.80
2018-05-10T09:11:39.544Z,49.85
2018-05-10T09:12:39.483Z,47.34
2018-05-10T09:13:39.433Z,48.22
2018-05-10T09:14:39.346Z,48.22
2018-05-10T09:15:39.284Z,46.50
2018-05-10T09:16:39.222Z,48.54
2018-05-10T09:17:39.158Z,48.10
2018-05-10T09:18:39.096Z,47.90
2018-05-10T09:19:39.039Z,48.12
2018-05-10T09:20:38.971Z,47.98
2018-05-10T09:21:38.909Z,47.71
2018-05-10T09:22:38.849Z,47.61
2018-05-10T09:23:38.772Z,47.20
2018-05-10T09:24:38.709Z,47.86
2018-05-10T09:25:38.645Z,48.93
2018-05-10T09:26:38.596Z,48.36
2018-05-10T09:27:38.534Z,48.20
2018-05-10T09:28:38.460Z,49.29
2018-05-10T09:29:38.399Z,48.63
2018-05-10T09:30:38.335Z,48.44
2018-05-10T09:31:38.309Z,48.00
2018-05-10T09:32:38.199Z,46.93
2018-05-10T09:33:38.135Z,46.83
2018-05-10T09:34:38.072Z,47.05
2018-05-10T09:35:38.010Z,48.78
2018-05-10T09:36:37.947Z,48.10
2018-05-10T09:37:37.887Z,49.56
2018-05-10T09:38:37.836Z,49.56
2018-05-10T09:39:37.761Z,50.14
2018-05-10T09:40:37.697Z,50.26
2018-05-10T09:41:37.636Z,47.88
2018-05-10T09:42:37.564Z,49.78
2018-05-10T09:43:37.499Z,49.32
2018-05-10T09:44:37.436Z,50.26
2018-05-10T09:45:37.374Z,48.97
2018-05-10T09:46:37.312Z,49.49
2018-05-10T09:47:37.249Z,49.46
2018-05-10T09:48:37.187Z,49.66
2018-05-10T09:49:37.125Z,50.68
2018-05-10T09:50:37.062Z,51.77
2018-05-10T09:51:37.005Z,52.91
2018-05-10T09:52:36.961Z,52.94
2018-05-10T09:53:36.862Z,52.15
2018-05-10T09:54:36.799Z,51.93
2018-05-10T09:55:36.738Z,52.25
2018-05-10T09:56:36.670Z,51.65
2018-05-10T09:57:36.599Z,52.03
2018-05-10T09:58:36.538Z,53.10
2018-05-10T09:59:36.475Z,53.69
2018-05-10T10:00:36.400Z,53.10
2018-05-10T10:01:36.338Z,53.03
2018-05-10T10:02:36.275Z,52.25
2018-05-10T10:03:36.202Z,52.15
2018-05-10T10:04:36.138Z,51.50
2018-05-10T10:05:36.064Z,51.60
2018-05-10T10:06:36.001Z,51.01
2018-05-10T10:07:35.940Z,51.67
2018-05-10T10:08:35.864Z,52.28
2018-05-10T10:09:35.801Z,50.89
2018-05-10T10:10:35.729Z,51.48
2018-05-10T10:11:35.748Z,51.77
2018-05-10T10:12:35.592Z,51.35
2018-05-10T10:13:35.526Z,52.20
2018-05-10T10:14:35.453Z,52.98
2018-05-10T10:15:35.455Z,52.78
2018-05-10T10:16:35.327Z,53.66
2018-05-10T10:17:35.277Z,52.20
2018-05-10T10:18:35.193Z,52.98
2018-05-10T10:19:35.117Z,53.05
2018-05-10T10:20:35.052Z,53.27
2018-05-10T10:21:34.991Z,52.88
2018-05-10T10:22:34.918Z,52.81
2018-05-10T10:23:34.843Z,53.78
2018-05-10T10:24:34.778Z,54.27
2018-05-10T10:25:34.703Z,54.56
2018-05-10T10:26:34.638Z,55.04
2018-05-10T10:27:34.569Z,54.88
2018-05-10T10:28:34.494Z,53.91
2018-05-10T10:29:34.429Z,53.88
2018-05-10T10:30:34.353Z,54.85
2018-05-10T10:31:34.291Z,54.49
2018-05-10T10:32:34.221Z,54.10
2018-05-10T10:33:34.154Z,53.91
2018-05-10T10:34:34.186Z,54.61
2018-05-10T10:35:34.020Z,53.16
2018-05-10T10:36:33.943Z,53.08
2018-05-10T10:37:33.892Z,53.06
2018-05-10T10:38:33.806Z,52.92
2018-05-10T10:39:33.742Z,53.33
2018-05-10T10:40:33.667Z,50.82
2018-05-10T10:41:33.604Z,49.71
2018-05-10T10:42:33.542Z,48.22
2018-05-10T10:43:33.468Z,48.71
2018-05-10T10:44:33.406Z,47.95
2018-05-10T10:45:33.340Z,47.22
2018-05-10T10:46:33.268Z,45.92
2018-05-10T10:47:33.204Z,46.97
2018-05-10T10:48:33.131Z,46.34
2018-05-10T10:49:33.068Z,46.56
2018-05-10T10:50:33.005Z,47.61
2018-05-10T10:51:32.943Z,46.71
2018-05-10T10:52:32.880Z,49.37
2018-05-10T10:53:32.805Z,49.66
2018-05-10T10:54:32.744Z,48.61
2018-05-10T10:55:32.695Z,47.66
2018-05-10T10:56:32.623Z,46.10
2018-05-10T10:57:32.544Z,45.51
2018-05-10T10:58:32.494Z,47.96
2018-05-10T10:59:32.424Z,48.10
2018-05-10T11:00:32.356Z,46.98
2018-05-10T11:01:32.370Z,46.34
2018-05-10T11:02:32.231Z,45.25
2018-05-10T11:03:32.156Z,45.15
2018-05-10T11:04:32.097Z,45.25
2018-05-10T11:05:32.032Z,45.49
2018-05-10T11:06:31.972Z,45.57
2018-05-10T11:07:31.906Z,45.28
2018-05-10T11:08:31.833Z,44.64
2018-05-10T11:09:31.771Z,43.59
2018-05-10T11:10:31.708Z,44.17
2018-05-10T11:11:31.645Z,43.90
2018-05-10T11:12:31.582Z,44.44
2018-05-10T11:13:31.521Z,45.08
2018-05-10T11:14:31.515Z,47.27
2018-05-10T11:15:31.447Z,47.98
2018-05-10T11:16:31.325Z,46.69
2018-05-10T11:17:31.258Z,48.13
2018-05-10T11:18:31.196Z,48.05
2018-05-10T11:19:31.133Z,46.73
2018-05-10T11:20:31.059Z,46.34
2018-05-10T11:21:30.996Z,47.00
2018-05-10T11:22:31.020Z,47.20
2018-05-10T11:23:30.872Z,48.00
2018-05-10T11:24:30.809Z,48.10
2018-05-10T11:25:30.734Z,48.85
2018-05-10T11:26:30.672Z,47.56
2018-05-10T11:27:30.609Z,47.22
2018-05-10T11:28:30.547Z,46.54
2018-05-10T11:29:30.484Z,45.49
2018-05-10T11:30:30.409Z,44.83
2018-05-10T11:31:30.347Z,44.44
2018-05-10T11:32:30.288Z,43.27
2018-05-10T11:33:30.226Z,42.88
2018-05-10T11:34:30.148Z,44.24
2018-05-10T11:35:30.085Z,43.68
2018-05-10T11:36:30.027Z,43.68
2018-05-10T11:37:29.960Z,42.90
2018-05-10T11:38:29.899Z,43.39
2018-05-10T11:39:29.824Z,44.59
2018-05-10T11:40:29.761Z,45.72
2018-05-10T11:41:29.699Z,48.00
2018-05-10T11:42:29.635Z,48.49
2018-05-10T11:43:29.573Z,49.76
2018-05-10T11:44:29.578Z,48.51
2018-05-10T11:45:29.438Z,47.56
2018-05-10T11:46:29.385Z,46.64
2018-05-10T11:47:29.324Z,46.54
2018-05-10T11:48:29.250Z,45.42
2018-05-10T11:49:29.186Z,45.75
2018-05-10T11:50:29.125Z,45.54
2018-05-10T11:51:29.049Z,45.47
2018-05-10T11:52:28.989Z,48.17
2018-05-10T11:53:28.925Z,49.56
2018-05-10T11:54:28.850Z,50.92
2018-05-10T11:55:28.790Z,50.73
2018-05-10T11:56:28.725Z,50.58
2018-05-10T11:57:28.662Z,48.10
2018-05-10T11:58:28.589Z,46.59
2018-05-10T11:59:28.526Z,45.22
2018-05-10T12:00:28.463Z,45.48
2018-05-10T12:01:28.401Z,44.70
2018-05-10T12:02:28.425Z,43.75
2018-05-10T12:03:28.268Z,43.48
2018-05-10T12:04:28.201Z,42.89
2018-05-10T12:05:28.140Z,43.36
2018-05-10T12:06:28.088Z,42.16
2018-05-10T12:07:28.026Z,41.97
2018-05-10T12:08:27.940Z,42.93
2018-05-10T12:09:27.877Z,43.82
2018-05-10T12:10:27.814Z,45.42
2018-05-10T12:11:27.753Z,46.54
2018-05-10T12:12:27.689Z,48.17
2018-05-10T12:13:27.632Z,49.46
2018-05-10T12:14:27.583Z,47.71
2018-05-10T12:15:27.490Z,47.63
2018-05-10T12:16:27.428Z,47.22
2018-05-10T12:17:27.377Z,47.69
2018-05-10T12:18:27.306Z,48.49
2018-05-10T12:19:27.246Z,48.22
2018-05-10T12:20:27.204Z,48.10
2018-05-10T12:21:27.106Z,48.07
2018-05-10T12:22:27.040Z,48.00
2018-05-10T12:23:26.978Z,48.00
2018-05-10T12:24:26.916Z,46.59
2018-05-10T12:25:26.943Z,45.54
2018-05-10T12:26:26.779Z,44.12
2018-05-10T12:27:26.717Z,44.73
2018-05-10T12:28:26.654Z,43.26
2018-05-10T12:29:26.607Z,42.58
2018-05-10T12:30:26.556Z,43.16
2018-05-10T12:31:26.466Z,42.63
2018-05-10T12:32:26.404Z,42.93
2018-05-10T12:33:26.329Z,43.61
2018-05-10T12:34:26.266Z,44.64
2018-05-10T12:35:26.204Z,43.82
2018-05-10T12:36:26.142Z,42.01
2018-05-10T12:37:26.081Z,41.77
2018-05-10T12:38:26.005Z,40.89
2018-05-10T12:39:25.944Z,41.17
2018-05-10T12:40:25.881Z,40.86
2018-05-10T12:41:25.817Z,42.66
2018-05-10T12:42:25.756Z,41.83
2018-05-10T12:43:25.693Z,41.66
2018-05-10T12:44:25.633Z,41.63
2018-05-10T12:45:25.567Z,41.91
2018-05-10T12:46:25.494Z,41.15
2018-05-10T12:47:25.430Z,41.15
2018-05-10T12:48:25.368Z,40.00
2018-05-10T12:49:25.308Z,40.21
2018-05-10T12:50:25.243Z,39.90
2018-05-10T12:51:25.182Z,39.86